Open Full Screen Window  High Contrast Mode
Wind Gusting 26 knots
19
November 21, 2017 12:55 PM CST
Weather Information
Wind Direction
  320 °
Wind Speed
  19 kt (22 mph)
Wind Gust
  26 kt (30 mph)
Altimeter
30.27 in
Visibility
10 SM
Temperature
-05° C
23° F
Dewpoint
-14° C
F
Humidity
50%
1hr Rain Fall
00.00 in.
24hr Rain Fall
00.00 in.
Sky Condition
Clear
VFR

METAR KMDS 211855Z AUTO 32019G26KT 10SM CLR M05/M14 A3027 RMK AO2

*Background is not an actual portrayal of the airport.